Time;durP1;ratioP1;P1;durP2;ratioP2;P2;SDS_P1;SDS_P2;PMS_P1;PMS_P2;Temp;Humidity;BMP_temperature;BMP_pressure;BME280_temperature;BME280_humidity;BME280_pressure;Samples;Min_cycle;Max_cycle;Signal;HPM_P1;HPM_P2
2023/01/01 00:07:16;;;;;;;14.52;9.00;;;14.90;82.30;;;;;;20882879;28;20098;-40
2023/01/01 00:17:17;;;;;;;15.98;7.18;;;14.90;80.80;;;;;;20897790;28;20105;-40
2023/01/01 00:27:18;;;;;;;13.95;8.15;;;14.90;81.00;;;;;;20894911;28;20086;-40
2023/01/01 00:37:19;;;;;;;17.10;7.05;;;14.90;80.60;;;;;;20901437;28;20837;-40
2023/01/01 00:47:20;;;;;;;8.88;4.75;;;14.80;82.10;;;;;;20888131;28;20060;-41
2023/01/01 00:57:21;;;;;;;7.10;3.42;;;14.80;81.70;;;;;;20890316;28;20214;-40
2023/01/01 01:07:22;;;;;;;7.07;4.72;;;14.80;81.10;;;;;;20882404;28;20072;-41
2023/01/01 01:17:23;;;;;;;5.35;3.10;;;14.90;80.40;;;;;;20893364;28;20086;-40
2023/01/01 01:27:25;;;;;;;3.88;2.08;;;14.80;79.30;;;;;;20886988;28;20041;-40
2023/01/01 01:37:26;;;;;;;11.55;2.78;;;14.80;80.70;;;;;;20883135;28;20106;-40
2023/01/01 01:47:51;;;;;;;11.18;2.72;;;14.70;80.60;;;;;;20879290;28;20205;-40
2023/01/01 01:57:52;;;;;;;2.88;1.58;;;14.70;81.40;;;;;;20882775;28;20270;-40
2023/01/01 02:07:54;;;;;;;4.47;1.40;;;14.50;82.20;;;;;;20889476;28;20063;-40
2023/01/01 02:18:14;;;;;;;1.27;0.73;;;14.60;82.40;;;;;;20889697;28;20033;-40
2023/01/01 02:28:15;;;;;;;3.78;2.08;;;14.60;81.50;;;;;;20880181;28;20041;-41
2023/01/01 02:38:29;;;;;;;2.65;1.33;;;14.70;80.90;;;;;;20884701;28;20132;-40
2023/01/01 02:48:51;;;;;;;3.83;1.38;;;14.60;80.20;;;;;;20880076;28;20872;-41
2023/01/01 03:09:54;;;;;;;5.80;0.95;;;14.50;80.40;;;;;;20901331;28;20944;-40
2023/01/01 03:19:59;;;;;;;2.92;1.25;;;14.50;81.30;;;;;;20888763;28;20940;-40
2023/01/01 03:40:42;;;;;;;4.15;1.02;;;14.40;81.60;;;;;;21159854;23;20080;-42
2023/01/01 03:51:03;;;;;;;5.13;0.75;;;14.30;83.20;;;;;;20739414;28;20485;-42
2023/01/01 04:01:13;;;;;;;4.80;0.60;;;14.30;87.60;;;;;;20721085;28;20908;-42
2023/01/01 04:21:39;;;;;;;1.33;0.57;;;14.00;89.90;;;;;;20718812;28;20709;-42
2023/01/01 04:31:40;;;;;;;1.48;0.73;;;13.80;90.10;;;;;;20730581;28;20053;-43
2023/01/01 04:41:41;;;;;;;2.22;0.63;;;13.60;92.40;;;;;;20726753;28;20045;-43
2023/01/01 04:51:42;;;;;;;6.05;1.83;;;13.40;96.30;;;;;;20722115;28;20042;-43
2023/01/01 05:01:43;;;;;;;1.90;0.93;;;13.20;99.30;;;;;;20717891;28;20041;-42
2023/01/01 05:11:44;;;;;;;2.92;0.40;;;13.00;98.40;;;;;;20713862;28;20095;-42
2023/01/01 05:21:45;;;;;;;4.07;1.10;;;13.00;97.20;;;;;;20722390;28;20040;-42
2023/01/01 05:31:46;;;;;;;1.52;0.65;;;13.00;94.70;;;;;;20719376;28;20030;-41
2023/01/01 05:41:48;;;;;;;1.77;0.43;;;13.00;91.50;;;;;;20730215;28;20053;-42
2023/01/01 05:51:49;;;;;;;3.95;1.15;;;13.00;90.00;;;;;;20738048;28;20041;-42
2023/01/01 06:01:50;;;;;;;4.13;0.45;;;13.00;90.60;;;;;;20718170;28;20060;-42
2023/01/01 06:11:51;;;;;;;1.52;0.57;;;12.90;91.00;;;;;;20725616;28;20061;-42
2023/01/01 06:21:52;;;;;;;2.67;1.05;;;12.80;91.40;;;;;;20706563;28;20441;-42
2023/01/01 06:31:53;;;;;;;2.58;0.57;;;12.70;91.40;;;;;;20718470;28;20053;-42
2023/01/01 06:41:54;;;;;;;1.40;0.30;;;12.70;91.40;;;;;;20734318;28;20099;-41
2023/01/01 06:51:55;;;;;;;2.78;0.63;;;12.60;90.50;;;;;;20734359;28;20037;-42
2023/01/01 07:01:56;;;;;;;1.50;0.40;;;12.50;91.20;;;;;;20724988;28;20053;-42
2023/01/01 07:11:57;;;;;;;6.45;1.38;;;12.40;91.30;;;;;;20729905;28;20037;-43
2023/01/01 07:21:58;;;;;;;1.10;0.45;;;12.30;90.70;;;;;;20733039;28;20045;-42
2023/01/01 07:31:59;;;;;;;3.00;0.95;;;12.10;91.20;;;;;;20726452;28;20042;-41
2023/01/01 07:42:00;;;;;;;2.20;0.95;;;12.00;91.40;;;;;;20730854;28;20046;-42
2023/01/01 07:52:01;;;;;;;1.63;0.50;;;11.90;92.10;;;;;;20727316;28;20060;-43
2023/01/01 08:02:02;;;;;;;0.98;0.35;;;11.80;92.40;;;;;;20731570;28;20037;-42
2023/01/01 08:12:04;;;;;;;4.28;1.15;;;11.80;92.70;;;;;;20752876;28;20485;-42
2023/01/01 08:22:05;;;;;;;4.03;0.88;;;11.60;93.30;;;;;;20723384;28;20097;-42
2023/01/01 08:32:06;;;;;;;2.20;0.52;;;11.50;94.20;;;;;;20728966;28;20053;-42
2023/01/01 08:42:07;;;;;;;1.48;0.70;;;11.40;94.10;;;;;;20737664;28;20049;-42
2023/01/01 08:52:08;;;;;;;2.50;1.05;;;11.50;94.10;;;;;;20723987;28;20041;-42
2023/01/01 09:02:10;;;;;;;2.92;0.73;;;11.40;93.70;;;;;;20722343;28;20548;-42
2023/01/01 09:12:15;;;;;;;2.75;1.20;;;11.50;93.80;;;;;;20731202;28;20046;-43
2023/01/01 09:22:16;;;;;;;1.20;0.40;;;11.60;94.70;;;;;;20719876;28;20041;-43
2023/01/01 09:32:17;;;;;;;0.85;0.30;;;11.60;94.80;;;;;;20719252;28;20033;-42
2023/01/01 09:42:21;;;;;;;2.55;1.35;;;11.70;94.40;;;;;;20722609;28;20504;-42
2023/01/01 09:52:29;;;;;;;7.20;0.90;;;12.00;93.40;;;;;;20721166;28;21896;-42
2023/01/01 10:02:56;;;;;;;2.70;0.95;;;12.10;92.60;;;;;;20734677;28;20054;-42
2023/01/01 10:13:09;;;;;;;1.73;0.80;;;12.20;93.00;;;;;;20729821;28;20879;-42
2023/01/01 10:23:24;;;;;;;4.57;1.40;;;12.30;92.60;;;;;;20723725;28;20476;-43
2023/01/01 10:33:25;;;;;;;5.35;1.80;;;12.30;94.60;;;;;;20713300;28;20780;-43
2023/01/01 10:43:26;;;;;;;1.33;0.35;;;12.30;96.50;;;;;;20725770;28;20057;-42
2023/01/01 10:53:31;;;;;;;5.13;1.00;;;12.50;96.90;;;;;;20723380;28;20041;-43
2023/01/01 11:03:32;;;;;;;5.07;1.38;;;12.80;96.00;;;;;;20718400;28;20053;-42
2023/01/01 11:13:33;;;;;;;5.03;0.90;;;12.70;96.70;;;;;;20716004;28;20467;-43
2023/01/01 11:23:37;;;;;;;3.03;1.27;;;12.70;98.40;;;;;;20716142;28;20053;-43
2023/01/01 11:33:45;;;;;;;6.28;0.98;;;12.70;98.60;;;;;;20729278;28;21189;-43
2023/01/01 11:43:47;;;;;;;2.85;0.85;;;12.50;99.90;;;;;;20741020;28;20679;-42
2023/01/01 11:53:48;;;;;;;4.15;1.05;;;12.50;99.90;;;;;;20738490;28;20084;-42
2023/01/01 12:04:18;;;;;;;8.73;1.92;;;12.40;99.90;;;;;;20734141;28;20046;-42
2023/01/01 12:14:30;;;;;;;2.20;0.90;;;12.40;99.90;;;;;;20688571;28;20034;-41
2023/01/01 12:24:34;;;;;;;2.17;0.90;;;12.40;99.90;;;;;;20735302;28;20252;-43
2023/01/01 12:34:38;;;;;;;7.45;1.52;;;12.50;99.90;;;;;;20702392;28;20038;-42
2023/01/01 12:45:10;;;;;;;4.68;1.30;;;12.50;99.90;;;;;;20679501;28;20050;-42
2023/01/01 12:55:30;;;;;;;6.40;1.52;;;12.60;99.40;;;;;;20688486;28;22522;-42
2023/01/01 13:05:39;;;;;;;4.07;1.63;;;12.60;98.30;;;;;;20652753;28;21780;-42
2023/01/01 13:15:43;;;;;;;1.50;0.60;;;12.60;98.10;;;;;;20685762;28;20045;-42
2023/01/01 13:25:44;;;;;;;2.85;1.00;;;12.50;98.60;;;;;;20688283;28;20045;-42
2023/01/01 13:35:45;;;;;;;3.55;1.50;;;12.50;98.90;;;;;;20688004;28;20041;-43
2023/01/01 13:45:52;;;;;;;3.50;1.00;;;12.50;98.90;;;;;;20663779;28;20049;-42
2023/01/01 13:56:23;;;;;;;5.40;1.30;;;12.50;99.00;;;;;;20680089;28;20497;-43
2023/01/01 14:06:35;;;;;;;2.88;1.40;;;12.50;99.50;;;;;;20668029;28;21308;-41
2023/01/01 14:16:36;;;;;;;4.72;1.00;;;12.50;99.90;;;;;;20663099;28;20426;-42
2023/01/01 14:26:38;;;;;;;5.85;1.90;;;12.40;99.90;;;;;;20666000;28;20866;-41
2023/01/01 14:36:49;;;;;;;3.13;1.58;;;12.40;99.90;;;;;;20668018;28;20216;-41
2023/01/01 14:46:52;;;;;;;4.18;1.67;;;12.40;99.90;;;;;;20660261;28;21957;-41
2023/01/01 14:56:53;;;;;;;3.63;1.63;;;12.40;99.90;;;;;;20670235;28;20123;-41
2023/01/01 15:06:59;;;;;;;3.58;1.10;;;12.30;99.90;;;;;;20701565;28;20041;-41
2023/01/01 15:17:09;;;;;;;2.03;0.90;;;12.30;99.90;;;;;;20701970;28;20044;-42
2023/01/01 15:27:29;;;;;;;3.55;1.63;;;12.20;99.90;;;;;;20677754;28;20084;-42
2023/01/01 15:37:50;;;;;;;2.65;1.23;;;12.20;99.90;;;;;;20673605;28;20297;-42
2023/01/01 15:48:24;;;;;;;2.38;1.08;;;12.20;99.90;;;;;;20675307;28;20870;-41
2023/01/01 15:58:33;;;;;;;2.65;1.15;;;12.20;99.90;;;;;;20664619;28;20201;-41
2023/01/01 16:08:37;;;;;;;6.85;2.47;;;12.20;99.90;;;;;;20681343;28;20054;-41
2023/01/01 16:18:38;;;;;;;5.72;2.97;;;12.20;99.90;;;;;;20673377;28;20061;-42
2023/01/01 16:28:39;;;;;;;2.92;1.17;;;12.30;99.90;;;;;;20678481;28;20095;-41
2023/01/01 16:38:40;;;;;;;6.35;2.10;;;12.20;99.90;;;;;;20685094;28;20061;-43
2023/01/01 16:48:42;;;;;;;7.00;1.75;;;12.30;99.90;;;;;;20672153;28;20069;-43
2023/01/01 16:58:44;;;;;;;4.60;2.40;;;12.20;99.90;;;;;;20690169;28;20055;-41
2023/01/01 17:08:45;;;;;;;5.35;1.83;;;12.20;99.90;;;;;;20707648;28;20045;-41
2023/01/01 17:18:50;;;;;;;5.72;1.20;;;12.20;99.90;;;;;;20708061;28;20967;-41
2023/01/01 17:28:53;;;;;;;6.55;2.10;;;12.20;99.90;;;;;;20674226;28;20501;-42
2023/01/01 17:38:56;;;;;;;2.72;1.10;;;12.30;99.90;;;;;;20688120;28;20379;-42
2023/01/01 17:49:01;;;;;;;11.68;1.60;;;12.30;99.90;;;;;;20708526;28;20045;-42
2023/01/01 17:59:05;;;;;;;2.60;1.05;;;12.00;99.90;;;;;;20706873;28;20189;-42
2023/01/01 18:09:10;;;;;;;6.28;1.50;;;11.70;99.90;;;;;;20712477;28;20672;-42
2023/01/01 18:19:11;;;;;;;5.45;2.35;;;11.50;99.90;;;;;;20670455;28;20072;-42
2023/01/01 18:29:12;;;;;;;4.30;1.67;;;11.30;99.90;;;;;;20670893;28;20115;-42
2023/01/01 18:39:32;;;;;;;3.65;1.80;;;11.20;99.90;;;;;;20631050;28;20795;-42
2023/01/01 18:49:35;;;;;;;5.82;2.03;;;11.20;99.90;;;;;;20687470;28;20799;-42
2023/01/01 18:59:37;;;;;;;9.05;2.05;;;11.10;99.90;;;;;;20676322;28;20096;-41
2023/01/01 19:09:38;;;;;;;5.28;2.45;;;11.00;99.90;;;;;;20688972;28;20042;-42
2023/01/01 19:19:39;;;;;;;15.50;2.92;;;10.90;99.90;;;;;;20688855;28;20115;-41
2023/01/01 19:29:45;;;;;;;4.63;1.73;;;10.90;99.90;;;;;;20692810;28;20050;-41
2023/01/01 19:39:49;;;;;;;5.50;2.45;;;10.80;99.90;;;;;;20682596;28;20846;-42
2023/01/01 19:49:50;;;;;;;3.38;1.65;;;10.80;99.90;;;;;;20700957;28;20521;-41
2023/01/01 19:59:51;;;;;;;4.47;2.47;;;10.80;99.90;;;;;;20671562;28;20433;-41
2023/01/01 20:09:52;;;;;;;4.43;1.80;;;10.80;99.90;;;;;;20671310;28;20505;-40
2023/01/01 20:19:55;;;;;;;4.78;2.33;;;10.80;99.90;;;;;;20666324;28;20038;-41
2023/01/01 20:29:56;;;;;;;3.53;1.50;;;10.80;99.90;;;;;;20662770;28;20057;-40
2023/01/01 20:39:57;;;;;;;3.15;1.80;;;10.70;99.90;;;;;;20649797;28;20133;-40
2023/01/01 20:49:58;;;;;;;3.30;1.90;;;10.70;99.90;;;;;;20660125;28;20057;-41
2023/01/01 20:59:59;;;;;;;4.07;1.60;;;10.70;99.90;;;;;;20655205;28;20091;-41
2023/01/01 21:10:00;;;;;;;5.55;2.40;;;10.70;99.90;;;;;;20674752;28;20049;-42
2023/01/01 21:20:01;;;;;;;4.03;1.48;;;10.70;99.90;;;;;;20673779;28;20063;-42
2023/01/01 21:30:11;;;;;;;4.20;1.95;;;10.70;99.90;;;;;;20665367;28;20218;-42
2023/01/01 21:40:21;;;;;;;3.08;1.30;;;10.70;99.90;;;;;;20700410;28;20536;-41
2023/01/01 21:50:24;;;;;;;9.77;2.17;;;10.70;99.90;;;;;;20719407;28;21900;-41
2023/01/01 22:00:25;;;;;;;2.97;1.52;;;10.80;99.90;;;;;;20706590;28;20030;-40
2023/01/01 22:10:44;;;;;;;5.00;2.72;;;10.70;99.90;;;;;;20699573;28;20104;-41
2023/01/01 22:20:47;;;;;;;6.38;2.55;;;10.70;99.90;;;;;;20691512;28;20092;-41
2023/01/01 22:30:53;;;;;;;4.55;2.05;;;10.70;99.90;;;;;;20682956;28;20907;-42
2023/01/01 22:40:54;;;;;;;5.13;2.08;;;10.70;99.90;;;;;;20695654;28;20042;-41
2023/01/01 22:50:57;;;;;;;4.97;3.47;;;10.70;99.90;;;;;;20699675;28;20099;-41
2023/01/01 23:00:58;;;;;;;5.85;2.63;;;10.80;99.90;;;;;;20692065;28;20037;-42
2023/01/01 23:11:01;;;;;;;7.60;3.72;;;10.90;99.90;;;;;;20698740;28;20490;-42
2023/01/01 23:21:07;;;;;;;5.47;3.03;;;11.10;99.90;;;;;;20699793;28;20108;-41
2023/01/01 23:31:10;;;;;;;2.92;2.05;;;11.10;99.90;;;;;;20707646;28;20473;-42
2023/01/01 23:41:11;;;;;;;7.10;2.33;;;11.10;99.90;;;;;;20702740;28;20041;-42
2023/01/01 23:51:13;;;;;;;6.53;2.22;;;11.10;99.90;;;;;;20698275;28;20129;-42
